createdAt,value
2023-01-26T00:00:21.066Z,97239.81
2023-01-26T00:01:23.968Z,97243.88
2023-01-26T00:02:25.859Z,97240.22
2023-01-26T00:03:28.112Z,97247.53
2023-01-26T00:04:30.060Z,97242.38
2023-01-26T00:05:31.925Z,97245.09
2023-01-26T00:06:33.712Z,97240.06
2023-01-26T00:07:35.457Z,97245.22
2023-01-26T00:08:41.189Z,97245.50
2023-01-26T00:09:43.508Z,97243.63
2023-01-26T00:10:50.469Z,97247.66
2023-01-26T00:11:52.243Z,97248.34
2023-01-26T00:12:54.063Z,97246.44
2023-01-26T00:14:00.206Z,97243.06
2023-01-26T00:15:02.047Z,97243.72
2023-01-26T00:16:04.026Z,97237.59
2023-01-26T00:17:05.838Z,97238.72
2023-01-26T00:18:07.612Z,97239.50
2023-01-26T00:19:09.456Z,97241.00
2023-01-26T00:20:11.731Z,97238.41
2023-01-26T00:21:15.521Z,97233.56
2023-01-26T00:22:17.285Z,97231.13
2023-01-26T00:23:19.020Z,97236.25
2023-01-26T00:24:20.880Z,97232.75
2023-01-26T00:25:22.916Z,97231.94
2023-01-26T00:26:25.761Z,97226.94
2023-01-26T00:27:27.655Z,97231.13
2023-01-26T00:28:29.688Z,97226.78
2023-01-26T00:29:31.524Z,97228.28
2023-01-26T00:30:33.533Z,97225.72
2023-01-26T00:31:35.500Z,97219.47
2023-01-26T00:32:37.942Z,97225.53
2023-01-26T00:33:39.715Z,97219.47
2023-01-26T00:34:41.544Z,97230.56
2023-01-26T00:35:44.810Z,97231.22
2023-01-26T00:36:46.625Z,97226.88
2023-01-26T00:37:48.447Z,97225.16
2023-01-26T00:38:50.296Z,97223.25
2023-01-26T00:39:52.047Z,97223.38
2023-01-26T00:40:54.277Z,97208.88
2023-01-26T00:42:10.295Z,97217.41
2023-01-26T00:43:12.195Z,97220.00
2023-01-26T00:44:14.042Z,97215.66
2023-01-26T00:45:16.001Z,97214.00
2023-01-26T00:46:17.811Z,97219.03
2023-01-26T00:47:19.927Z,97218.09
2023-01-26T00:48:24.467Z,97218.91
2023-01-26T00:49:26.616Z,97228.09
2023-01-26T00:50:28.440Z,97218.75
2023-01-26T00:51:30.189Z,97214.53
2023-01-26T00:52:32.230Z,97218.91
2023-01-26T00:53:34.013Z,97223.91
2023-01-26T00:54:35.675Z,97222.28
2023-01-26T00:55:37.559Z,97218.91
2023-01-26T00:56:39.359Z,97221.47
2023-01-26T00:57:41.330Z,97221.59
2023-01-26T00:58:45.186Z,97214.00
2023-01-26T00:59:46.948Z,97217.69
2023-01-26T01:00:48.792Z,97220.25
2023-01-26T01:01:51.023Z,97219.31
2023-01-26T01:02:53.011Z,97220.25
2023-01-26T01:03:54.860Z,97220.56
2023-01-26T01:04:56.723Z,97228.13
2023-01-26T01:05:58.481Z,97219.59
2023-01-26T01:07:00.392Z,97218.25
2023-01-26T01:08:02.658Z,97215.31
2023-01-26T01:09:04.569Z,97216.09
2023-01-26T01:10:06.530Z,97217.88
2023-01-26T01:11:10.080Z,97214.75
2023-01-26T01:12:11.948Z,97211.38
2023-01-26T01:13:13.786Z,97213.56
2023-01-26T01:14:16.295Z,97215.16
2023-01-26T01:15:18.128Z,97218.16
2023-01-26T01:16:20.153Z,97219.91
2023-01-26T01:17:22.011Z,97213.97
2023-01-26T01:18:23.801Z,97208.16
2023-01-26T01:19:25.604Z,97210.72
2023-01-26T01:20:27.388Z,97203.94
2023-01-26T01:21:29.277Z,97211.69
2023-01-26T01:22:31.117Z,97207.50
2023-01-26T01:23:32.956Z,97212.41
2023-01-26T01:24:35.580Z,97207.66
2023-01-26T01:25:37.376Z,97208.31
2023-01-26T01:26:39.694Z,97199.81
2023-01-26T01:27:41.544Z,97196.31
2023-01-26T01:28:44.078Z,97198.72
2023-01-26T01:29:45.877Z,97193.31
2023-01-26T01:30:47.719Z,97201.16
2023-01-26T01:31:49.548Z,97196.69
2023-01-26T01:32:52.503Z,97193.56
2023-01-26T01:33:54.580Z,97194.91
2023-01-26T01:34:56.356Z,97188.16
2023-01-26T01:35:59.224Z,97198.72
2023-01-26T01:37:01.042Z,97199.69
2023-01-26T01:38:02.934Z,97199.69
2023-01-26T01:39:04.840Z,97187.34
2023-01-26T01:40:06.933Z,97193.84
2023-01-26T01:41:08.998Z,97190.97
2023-01-26T01:42:10.778Z,97185.72
2023-01-26T01:43:12.755Z,97186.81
2023-01-26T01:44:16.587Z,97183.13
2023-01-26T01:45:27.287Z,97181.09
2023-01-26T01:46:37.422Z,97187.47
2023-01-26T01:47:39.371Z,97186.94
2023-01-26T01:48:44.110Z,97188.16
2023-01-26T01:49:45.987Z,97189.50
2023-01-26T01:50:49.514Z,97188.16
2023-01-26T01:51:54.767Z,97186.09
2023-01-26T01:52:56.711Z,97181.59
2023-01-26T01:54:00.120Z,97184.19
2023-01-26T01:55:09.294Z,97188.25
2023-01-26T01:56:13.738Z,97187.28
2023-01-26T01:57:17.880Z,97186.19
2023-01-26T01:58:19.969Z,97187.81
2023-01-26T01:59:22.617Z,97193.09
2023-01-26T02:00:24.644Z,97185.53
2023-01-26T02:01:26.663Z,97182.94
2023-01-26T02:02:29.001Z,97183.25
2023-01-26T02:03:32.390Z,97183.91
2023-01-26T02:04:34.183Z,97183.78
2023-01-26T02:05:39.349Z,97185.69
2023-01-26T02:06:49.499Z,97172.66
2023-01-26T02:07:51.970Z,97180.09
2023-01-26T02:08:54.924Z,97176.56
2023-01-26T02:10:15.563Z,97173.06
2023-01-26T02:11:19.947Z,97172.13
2023-01-26T02:12:24.172Z,97170.50
2023-01-26T02:13:26.742Z,97162.63
2023-01-26T02:14:29.273Z,97161.97
2023-01-26T02:15:31.230Z,97165.34
2023-01-26T02:16:33.122Z,97159.38
2023-01-26T02:17:35.000Z,97166.13
2023-01-26T02:18:36.907Z,97162.63
2023-01-26T02:19:51.677Z,97160.19
2023-01-26T02:20:55.675Z,97163.03
2023-01-26T02:22:00.589Z,97158.84
2023-01-26T02:23:05.059Z,97160.75
2023-01-26T02:24:21.687Z,97159.66
2023-01-26T02:25:49.535Z,97154.50
2023-01-26T02:26:52.133Z,97150.16
2023-01-26T02:27:53.936Z,97153.16
2023-01-26T02:28:55.833Z,97145.56
2023-01-26T02:29:58.914Z,97154.50
2023-01-26T02:31:01.214Z,97148.16
2023-01-26T02:32:03.016Z,97147.13
2023-01-26T02:33:04.935Z,97147.25
2023-01-26T02:34:06.730Z,97138.31
2023-01-26T02:35:08.802Z,97136.28
2023-01-26T02:36:30.378Z,97136.03
2023-01-26T02:37:32.195Z,97136.16
2023-01-26T02:38:44.432Z,97139.53
2023-01-26T02:40:21.665Z,97133.03
2023-01-26T02:41:41.908Z,97138.84
2023-01-26T02:42:44.661Z,97135.03
2023-01-26T02:43:46.571Z,97131.25
2023-01-26T02:44:48.534Z,97131.81
2023-01-26T02:45:50.443Z,97136.81
2023-01-26T02:46:53.305Z,97129.91
2023-01-26T02:47:55.157Z,97129.09
2023-01-26T02:49:15.891Z,97124.22
2023-01-26T02:50:17.889Z,97129.38
2023-01-26T02:51:19.714Z,97119.66
2023-01-26T02:52:22.689Z,97115.34
2023-01-26T02:53:24.517Z,97117.06
2023-01-26T02:54:44.980Z,97113.56
2023-01-26T02:55:46.761Z,97117.47
2023-01-26T02:56:48.500Z,97121.97
2023-01-26T02:57:51.585Z,97117.06
2023-01-26T02:58:53.495Z,97123.19
2023-01-26T02:59:55.296Z,97122.22
2023-01-26T03:00:57.184Z,97116.69
2023-01-26T03:01:59.326Z,97111.25
2023-01-26T03:03:02.397Z,97118.84
2023-01-26T03:04:04.329Z,97110.19
2023-01-26T03:05:06.370Z,97111.94
2023-01-26T03:06:11.762Z,97110.19
2023-01-26T03:07:13.498Z,97111.66
2023-01-26T03:08:15.318Z,97114.38
2023-01-26T03:09:17.206Z,97105.84
2023-01-26T03:10:19.323Z,97112.34
2023-01-26T03:11:21.106Z,97116.50
2023-01-26T03:12:22.855Z,97111.38
2023-01-26T03:13:24.695Z,97108.66
2023-01-26T03:14:26.454Z,97107.72
2023-01-26T03:15:43.662Z,97112.88
2023-01-26T03:16:45.569Z,97103.09
2023-01-26T03:17:47.345Z,97109.56
2023-01-26T03:19:04.002Z,97108.75
2023-01-26T03:20:25.193Z,97105.25
2023-01-26T03:21:45.301Z,97106.59
2023-01-26T03:23:05.484Z,97100.34
2023-01-26T03:24:29.782Z,97102.66
2023-01-26T03:25:49.827Z,97100.88
2023-01-26T03:27:10.109Z,97098.44
2023-01-26T03:28:14.160Z,97105.34
2023-01-26T03:29:15.968Z,97101.94
2023-01-26T03:30:18.848Z,97101.28
2023-01-26T03:31:20.716Z,97107.41
2023-01-26T03:32:22.642Z,97101.72
2023-01-26T03:33:24.502Z,97100.09
2023-01-26T03:34:26.527Z,97104.44
2023-01-26T03:35:28.311Z,97097.69
2023-01-26T03:36:30.052Z,97102.00
2023-01-26T03:37:37.054Z,97108.09
2023-01-26T03:38:38.882Z,97105.66
2023-01-26T03:39:59.229Z,97114.47
2023-01-26T03:41:19.263Z,97107.88
2023-01-26T03:42:39.489Z,97106.22
2023-01-26T03:43:59.712Z,97103.81
2023-01-26T03:45:20.012Z,97109.91
2023-01-26T03:46:40.045Z,97106.97
2023-01-26T03:48:00.318Z,97106.41
2023-01-26T03:49:20.400Z,97109.94
2023-01-26T03:50:40.940Z,97108.03
2023-01-26T03:52:01.106Z,97105.19
2023-01-26T03:53:21.294Z,97117.91
2023-01-26T03:54:41.542Z,97110.47
2023-01-26T03:56:01.684Z,97107.09
2023-01-26T03:57:03.613Z,97102.50
2023-01-26T03:58:05.390Z,97103.44
2023-01-26T03:59:11.475Z,97109.38
2023-01-26T04:00:15.376Z,97105.22
2023-01-26T04:01:21.973Z,97106.00
2023-01-26T04:02:42.688Z,97105.88
2023-01-26T04:04:03.040Z,97102.63
2023-01-26T04:05:23.710Z,97106.00
2023-01-26T04:06:44.458Z,97111.16
2023-01-26T04:08:04.771Z,97104.25
2023-01-26T04:09:06.567Z,97103.56
2023-01-26T04:10:08.858Z,97100.19
2023-01-26T04:11:10.700Z,97096.69
2023-01-26T04:12:13.871Z,97096.69
2023-01-26T04:13:34.296Z,97105.09
2023-01-26T04:14:54.484Z,97101.31
2023-01-26T04:16:14.759Z,97086.88
2023-01-26T04:17:34.995Z,97094.41
2023-01-26T04:18:55.236Z,97092.38
2023-01-26T04:20:15.410Z,97095.63
2023-01-26T04:21:34.565Z,97092.13
2023-01-26T04:22:40.755Z,97100.22
2023-01-26T04:23:42.518Z,97094.28
2023-01-26T04:24:44.226Z,97091.34
2023-01-26T04:25:47.062Z,97094.16
2023-01-26T04:26:49.111Z,97092.03
2023-01-26T04:27:50.945Z,97091.91
2023-01-26T04:28:52.934Z,97091.91
2023-01-26T04:29:54.799Z,97091.91
2023-01-26T04:30:56.666Z,97087.44
2023-01-26T04:31:58.561Z,97083.88
2023-01-26T04:33:00.322Z,97085.66
2023-01-26T04:34:02.774Z,97094.03
2023-01-26T04:35:05.519Z,97085.22
2023-01-26T04:36:08.870Z,97090.38
2023-01-26T04:37:10.712Z,97084.44
2023-01-26T04:38:12.509Z,97091.19
2023-01-26T04:39:14.359Z,97091.47
2023-01-26T04:40:16.210Z,97087.00
2023-01-26T04:41:18.183Z,97090.38
2023-01-26T04:42:20.094Z,97088.59
2023-01-26T04:43:21.888Z,97091.03
2023-01-26T04:44:23.946Z,97087.00
2023-01-26T04:45:25.877Z,97088.09
2023-01-26T04:46:27.988Z,97084.84
2023-01-26T04:47:29.922Z,97075.81
2023-01-26T04:48:31.892Z,97077.84
2023-01-26T04:49:33.724Z,97073.50
2023-01-26T04:50:35.538Z,97074.69
2023-01-26T04:51:37.443Z,97072.13
2023-01-26T04:52:39.250Z,97076.59
2023-01-26T04:53:41.064Z,97068.75
2023-01-26T04:54:42.924Z,97074.41
2023-01-26T04:55:44.699Z,97076.72
2023-01-26T04:56:46.543Z,97068.88
2023-01-26T04:57:48.333Z,97072.09
2023-01-26T04:58:50.225Z,97068.31
2023-01-26T04:59:52.086Z,97077.34
2023-01-26T05:00:55.286Z,97077.06
2023-01-26T05:01:57.160Z,97073.69
2023-01-26T05:02:58.916Z,97078.03
2023-01-26T05:04:01.993Z,97078.84
2023-01-26T05:05:03.943Z,97071.78
2023-01-26T05:06:05.823Z,97067.44
2023-01-26T05:07:07.653Z,97075.81
2023-01-26T05:08:09.447Z,97074.06
2023-01-26T05:09:11.667Z,97073.00
2023-01-26T05:10:15.761Z,97072.19
2023-01-26T05:11:17.790Z,97074.59
2023-01-26T05:12:34.712Z,97070.94
2023-01-26T05:13:37.482Z,97072.69
2023-01-26T05:14:39.298Z,97076.91
2023-01-26T05:15:41.234Z,97075.13
2023-01-26T05:16:43.081Z,97080.13
2023-01-26T05:17:45.299Z,97078.22
2023-01-26T05:18:47.098Z,97071.09
2023-01-26T05:19:48.952Z,97079.72
2023-01-26T05:20:50.756Z,97072.03
2023-01-26T05:21:52.529Z,97075.25
2023-01-26T05:22:54.489Z,97070.13
2023-01-26T05:23:56.404Z,97071.22
2023-01-26T05:24:58.211Z,97075.25
2023-01-26T05:26:00.004Z,97066.59
2023-01-26T05:27:20.100Z,97072.56
2023-01-26T05:28:22.034Z,97070.94
2023-01-26T05:29:23.943Z,97068.22
2023-01-26T05:30:25.829Z,97064.69
2023-01-26T05:31:27.727Z,97066.31
2023-01-26T05:32:30.583Z,97068.75
2023-01-26T05:33:32.551Z,97061.69
2023-01-26T05:34:34.343Z,97061.56
2023-01-26T05:35:36.508Z,97065.06
2023-01-26T05:36:38.320Z,97065.75
2023-01-26T05:37:42.340Z,97066.56
2023-01-26T05:38:44.428Z,97066.03
2023-01-26T05:39:46.380Z,97074.84
2023-01-26T05:40:48.267Z,97066.31
2023-01-26T05:41:50.037Z,97066.97
2023-01-26T05:42:52.339Z,97066.03
2023-01-26T05:43:54.170Z,97063.47
2023-01-26T05:44:56.165Z,97063.06
2023-01-26T05:45:58.247Z,97056.47
2023-01-26T05:47:00.067Z,97059.03
2023-01-26T05:48:02.026Z,97063.38
2023-01-26T05:49:03.977Z,97063.22
2023-01-26T05:50:06.117Z,97055.78
2023-01-26T05:51:07.926Z,97059.31
2023-01-26T05:52:13.514Z,97057.56
2023-01-26T05:53:15.496Z,97056.59
2023-01-26T05:54:17.406Z,97053.88
2023-01-26T05:55:19.222Z,97066.88
2023-01-26T05:56:21.059Z,97060.00
2023-01-26T05:57:22.937Z,97059.69
2023-01-26T05:58:24.734Z,97062.13
2023-01-26T05:59:26.587Z,97062.13
2023-01-26T06:00:28.351Z,97062.81
2023-01-26T06:01:30.153Z,97059.25
2023-01-26T06:02:32.036Z,97065.06
2023-01-26T06:03:33.913Z,97066.56
2023-01-26T06:04:35.764Z,97062.22
2023-01-26T06:05:39.042Z,97064.66
2023-01-26T06:06:41.022Z,97062.91
2023-01-26T06:07:42.932Z,97063.03
2023-01-26T06:08:44.714Z,97064.94
2023-01-26T06:09:46.677Z,97060.75
2023-01-26T06:10:48.420Z,97063.34
2023-01-26T06:11:50.277Z,97067.38
2023-01-26T06:12:52.006Z,97066.41
2023-01-26T06:13:53.809Z,97068.19
2023-01-26T06:14:55.672Z,97063.03
2023-01-26T06:16:00.496Z,97068.19
2023-01-26T06:17:02.365Z,97071.84
2023-01-26T06:18:04.311Z,97070.22
2023-01-26T06:19:06.168Z,97071.84
2023-01-26T06:20:08.680Z,97067.81
2023-01-26T06:21:10.498Z,97068.75
2023-01-26T06:22:13.300Z,97069.84
2023-01-26T06:23:15.058Z,97069.19
2023-01-26T06:24:16.991Z,97064.97
2023-01-26T06:25:18.895Z,97070.94
2023-01-26T06:26:20.851Z,97066.88
2023-01-26T06:27:22.746Z,97070.28
2023-01-26T06:28:24.588Z,97065.81
2023-01-26T06:29:26.483Z,97064.97
2023-01-26T06:30:28.430Z,97065.28
2023-01-26T06:31:30.496Z,97066.22
2023-01-26T06:32:32.348Z,97066.06
2023-01-26T06:33:35.628Z,97059.03
2023-01-26T06:34:37.603Z,97058.09
2023-01-26T06:35:39.367Z,97057.41
2023-01-26T06:36:41.817Z,97055.78
2023-01-26T06:37:43.641Z,97060.78
2023-01-26T06:38:46.791Z,97060.13
2023-01-26T06:39:48.587Z,97053.34
2023-01-26T06:40:51.746Z,97061.91
2023-01-26T06:41:53.568Z,97062.84
2023-01-26T06:42:55.428Z,97055.25
2023-01-26T06:43:57.145Z,97052.00
2023-01-26T06:44:59.244Z,97060.69
2023-01-26T06:46:01.649Z,97070.00
2023-01-26T06:47:03.587Z,97071.91
2023-01-26T06:48:05.457Z,97066.91
2023-01-26T06:49:07.370Z,97068.53
2023-01-26T06:50:09.858Z,97069.22
2023-01-26T06:51:20.829Z,97077.06
2023-01-26T06:52:25.969Z,97073.56
2023-01-26T06:53:34.402Z,97078.41
2023-01-26T06:54:36.179Z,97078.53
2023-01-26T06:55:39.198Z,97075.97
2023-01-26T06:56:41.069Z,97083.00
2023-01-26T06:57:42.955Z,97073.28
2023-01-26T06:58:44.846Z,97084.00
2023-01-26T06:59:46.667Z,97079.66
2023-01-26T07:00:48.582Z,97073.59
2023-01-26T07:01:50.439Z,97081.56
2023-01-26T07:02:52.242Z,97074.56
2023-01-26T07:03:55.442Z,97081.31
2023-01-26T07:04:57.812Z,97074.28
2023-01-26T07:05:59.555Z,97081.06
2023-01-26T07:07:01.425Z,97079.41
2023-01-26T07:08:04.586Z,97078.47
2023-01-26T07:09:06.619Z,97080.22
2023-01-26T07:10:08.980Z,97075.06
2023-01-26T07:11:11.620Z,97077.50
2023-01-26T07:12:13.456Z,97077.50
2023-01-26T07:13:15.400Z,97083.88
2023-01-26T07:14:17.235Z,97080.50
2023-01-26T07:15:19.061Z,97079.03
2023-01-26T07:16:20.931Z,97087.69
2023-01-26T07:17:22.672Z,97079.84
2023-01-26T07:18:24.525Z,97073.91
2023-01-26T07:19:26.469Z,97080.66
2023-01-26T07:20:28.544Z,97072.94
2023-01-26T07:21:30.465Z,97085.00
2023-01-26T07:22:32.349Z,97079.03
2023-01-26T07:23:35.147Z,97080.94
2023-01-26T07:24:37.093Z,97072.56
2023-01-26T07:25:38.938Z,97077.69
2023-01-26T07:26:40.675Z,97081.88
2023-01-26T07:27:42.447Z,97077.41
2023-01-26T07:28:44.322Z,97076.19
2023-01-26T07:29:46.990Z,97077.03
2023-01-26T07:30:49.368Z,97077.84
2023-01-26T07:31:51.398Z,97078.63
2023-01-26T07:32:53.205Z,97077.03
2023-01-26T07:33:55.022Z,97071.88
2023-01-26T07:34:56.814Z,97077.53
2023-01-26T07:35:59.004Z,97078.38
2023-01-26T07:37:00.816Z,97077.84
2023-01-26T07:38:05.831Z,97077.28
2023-01-26T07:39:08.609Z,97072.72
2023-01-26T07:40:11.491Z,97084.88
2023-01-26T07:41:13.597Z,97071.75
2023-01-26T07:42:15.646Z,97073.38
2023-01-26T07:43:17.397Z,97079.19
2023-01-26T07:44:19.191Z,97073.75
2023-01-26T07:45:21.089Z,97074.47
2023-01-26T07:46:24.056Z,97087.81
2023-01-26T07:47:25.991Z,97075.63
2023-01-26T07:48:30.099Z,97083.34
2023-01-26T07:49:32.167Z,97082.53
2023-01-26T07:50:33.917Z,97081.75
2023-01-26T07:51:35.779Z,97081.22
2023-01-26T07:52:38.548Z,97075.41
2023-01-26T07:53:41.432Z,97075.94
2023-01-26T07:54:43.203Z,97079.47
2023-01-26T07:55:45.543Z,97071.63
2023-01-26T07:56:47.875Z,97081.63
2023-01-26T07:57:49.794Z,97076.31
2023-01-26T07:58:55.122Z,97077.69
2023-01-26T07:59:56.944Z,97086.75
2023-01-26T08:01:24.964Z,97081.88
2023-01-26T08:02:26.892Z,97077.69
2023-01-26T08:03:28.721Z,97078.63
2023-01-26T08:04:30.582Z,97081.88
2023-01-26T08:05:32.977Z,97083.50
2023-01-26T08:06:34.986Z,97074.69
2023-01-26T08:07:37.056Z,97069.56
2023-01-26T08:08:41.642Z,97074.84
2023-01-26T08:09:43.492Z,97073.50
2023-01-26T08:10:45.272Z,97069.72
2023-01-26T08:11:47.098Z,97067.28
2023-01-26T08:12:49.122Z,97058.91
2023-01-26T08:13:50.984Z,97070.81
2023-01-26T08:14:52.976Z,97062.00
2023-01-26T08:15:55.282Z,97060.09
2023-01-26T08:16:57.128Z,97064.44
2023-01-26T08:17:59.456Z,97055.94
2023-01-26T08:19:01.368Z,97061.06
2023-01-26T08:20:03.954Z,97059.31
2023-01-26T08:21:05.761Z,97055.25
2023-01-26T08:22:07.552Z,97058.91
2023-01-26T08:23:09.440Z,97060.66
2023-01-26T08:24:12.016Z,97057.00
2023-01-26T08:25:13.790Z,97055.94
2023-01-26T08:26:15.618Z,97062.53
2023-01-26T08:27:17.724Z,97057.28
2023-01-26T08:28:21.206Z,97062.41
2023-01-26T08:29:23.168Z,97060.50
2023-01-26T08:30:24.924Z,97065.53
2023-01-26T08:31:28.509Z,97057.81
2023-01-26T08:32:30.992Z,97068.09
2023-01-26T08:33:33.333Z,97065.34
2023-01-26T08:34:35.438Z,97057.81
2023-01-26T08:35:37.285Z,97062.66
2023-01-26T08:36:39.695Z,97058.19
2023-01-26T08:37:41.593Z,97065.09
2023-01-26T08:38:44.100Z,97060.75
2023-01-26T08:39:45.899Z,97057.75
2023-01-26T08:40:51.653Z,97067.78
2023-01-26T08:41:53.408Z,97054.47
2023-01-26T08:42:55.734Z,97057.72
2023-01-26T08:43:59.658Z,97058.69
2023-01-26T08:45:01.661Z,97057.59
2023-01-26T08:46:03.642Z,97059.88
2023-01-26T08:47:05.472Z,97054.44
2023-01-26T08:48:07.275Z,97055.25
2023-01-26T08:49:09.628Z,97056.88
2023-01-26T08:50:12.073Z,97053.34
2023-01-26T08:51:14.322Z,97055.78
2023-01-26T08:52:16.972Z,97055.25
2023-01-26T08:53:18.774Z,97055.91
2023-01-26T08:54:20.643Z,97065.28
2023-01-26T08:55:22.472Z,97059.84
2023-01-26T08:56:24.300Z,97064.84
2023-01-26T08:57:26.491Z,97057.66
2023-01-26T08:58:29.246Z,97061.47
2023-01-26T08:59:31.038Z,97066.06
2023-01-26T09:00:33.634Z,97061.72
2023-01-26T09:01:35.468Z,97057.41
2023-01-26T09:02:37.313Z,97061.72
2023-01-26T09:03:39.822Z,97059.03
2023-01-26T09:04:41.719Z,97054.00
2023-01-26T09:05:43.709Z,97062.69
2023-01-26T09:06:45.613Z,97057.56
2023-01-26T09:07:47.518Z,97056.88
2023-01-26T09:08:49.376Z,97057.16
2023-01-26T09:09:51.117Z,97055.56
2023-01-26T09:10:52.899Z,97060.69
2023-01-26T09:11:58.261Z,97057.97
2023-01-26T09:13:00.670Z,97059.47
2023-01-26T09:14:02.544Z,97055.78
2023-01-26T09:15:04.541Z,97063.63
2023-01-26T09:16:07.723Z,97063.09
2023-01-26T09:17:09.647Z,97064.50
2023-01-26T09:18:12.035Z,97064.63
2023-01-26T09:19:13.899Z,97060.28
2023-01-26T09:20:16.071Z,97058.69
2023-01-26T09:21:18.329Z,97062.06
2023-01-26T09:22:20.250Z,97063.97
2023-01-26T09:23:22.055Z,97061.25
2023-01-26T09:24:23.958Z,97058.69
2023-01-26T09:25:25.786Z,97055.72
2023-01-26T09:26:27.538Z,97059.09
2023-01-26T09:27:29.467Z,97060.59
2023-01-26T09:28:31.310Z,97064.63
2023-01-26T09:29:33.181Z,97060.16
2023-01-26T09:30:35.115Z,97063.41
2023-01-26T09:31:37.047Z,97054.88
2023-01-26T09:32:39.112Z,97060.03
2023-01-26T09:33:40.900Z,97054.88
2023-01-26T09:34:45.443Z,97060.03
2023-01-26T09:35:47.858Z,97059.06
2023-01-26T09:36:49.715Z,97064.06
2023-01-26T09:37:51.582Z,97064.75
2023-01-26T09:38:54.475Z,97064.19
2023-01-26T09:39:56.259Z,97059.06
2023-01-26T09:41:15.770Z,97060.69
2023-01-26T09:42:29.992Z,97060.69
2023-01-26T09:43:34.690Z,97065.53
2023-01-26T09:44:52.362Z,97066.22
2023-01-26T09:46:23.431Z,97064.06
2023-01-26T09:47:29.477Z,97052.97
2023-01-26T09:48:50.885Z,97063.28
2023-01-26T09:50:00.872Z,97068.09
2023-01-26T09:51:02.827Z,97062.97
2023-01-26T09:52:12.652Z,97063.78
2023-01-26T09:53:20.689Z,97057.69
2023-01-26T09:54:34.305Z,97063.38
2023-01-26T09:55:36.356Z,97061.59
2023-01-26T09:56:38.314Z,97056.59
2023-01-26T09:57:45.845Z,97055.16
2023-01-26T09:58:52.316Z,97055.03
2023-01-26T10:00:12.207Z,97051.34
2023-01-26T10:01:21.886Z,97049.75
2023-01-26T10:02:30.689Z,97048.78
2023-01-26T10:03:51.038Z,97045.28
2023-01-26T10:04:56.977Z,97043.50
2023-01-26T10:06:01.728Z,97044.72
2023-01-26T10:07:05.723Z,97046.50
2023-01-26T10:08:15.051Z,97048.78
2023-01-26T10:09:23.283Z,97040.13
2023-01-26T10:10:30.046Z,97040.63
2023-01-26T10:11:35.524Z,97038.59
2023-01-26T10:12:38.563Z,97033.44
2023-01-26T10:13:42.272Z,97035.22
2023-01-26T10:14:51.727Z,97035.34
2023-01-26T10:16:05.755Z,97034.41
2023-01-26T10:17:13.521Z,97031.03
2023-01-26T10:18:35.587Z,97030.75
2023-01-26T10:19:42.821Z,97029.94
2023-01-26T10:20:47.242Z,97036.69
2023-01-26T10:21:50.947Z,97032.78
2023-01-26T10:22:54.310Z,97035.34
2023-01-26T10:23:58.393Z,97029.94
2023-01-26T10:25:00.438Z,97018.69
2023-01-26T10:26:16.870Z,97030.06
2023-01-26T10:27:19.258Z,97022.34
2023-01-26T10:28:31.278Z,97029.13
2023-01-26T10:29:33.054Z,97022.09
2023-01-26T10:30:34.817Z,97026.13
2023-01-26T10:31:36.677Z,97014.50
2023-01-26T10:32:39.464Z,97017.66
2023-01-26T10:33:45.841Z,97020.34
2023-01-26T10:34:49.840Z,97018.72
2023-01-26T10:35:51.674Z,97021.16
2023-01-26T10:36:58.637Z,97016.69
2023-01-26T10:38:00.466Z,97018.97
2023-01-26T10:39:09.688Z,97013.41
2023-01-26T10:40:12.329Z,97006.22
2023-01-26T10:41:19.691Z,97004.31
2023-01-26T10:42:21.640Z,96996.44
2023-01-26T10:43:25.073Z,97002.41
2023-01-26T10:44:34.383Z,96992.09
2023-01-26T10:45:45.048Z,97004.31
2023-01-26T10:46:46.904Z,97004.31
2023-01-26T10:48:02.576Z,97006.06
2023-01-26T10:49:16.801Z,97003.63
2023-01-26T10:50:23.410Z,97002.00
2023-01-26T10:51:27.313Z,96996.72
2023-01-26T10:52:29.147Z,97005.25
2023-01-26T10:53:31.022Z,96999.03
2023-01-26T10:54:35.904Z,97000.75
2023-01-26T10:55:37.749Z,97000.63
2023-01-26T10:56:47.329Z,97004.97
2023-01-26T10:57:49.235Z,97003.50
2023-01-26T10:58:55.322Z,97000.53
2023-01-26T10:59:57.091Z,97005.69
2023-01-26T11:00:58.887Z,97001.78
2023-01-26T11:02:02.452Z,96998.09
2023-01-26T11:03:17.980Z,97003.63
2023-01-26T11:04:20.600Z,96995.78
2023-01-26T11:05:23.763Z,96997.53
2023-01-26T11:06:28.651Z,96989.81
2023-01-26T11:07:40.512Z,96992.09
2023-01-26T11:08:43.107Z,96992.09
2023-01-26T11:09:44.989Z,96992.25
2023-01-26T11:10:53.407Z,96988.88
2023-01-26T11:12:05.997Z,96989.00
2023-01-26T11:13:19.536Z,96984.84
2023-01-26T11:14:21.500Z,96985.63
2023-01-26T11:15:25.091Z,96990.13
2023-01-26T11:16:28.200Z,96985.25
2023-01-26T11:17:38.807Z,96980.28
2023-01-26T11:18:58.944Z,96972.56
2023-01-26T11:20:01.945Z,96981.72
2023-01-26T11:21:03.762Z,96979.97
2023-01-26T11:22:07.595Z,96979.16
2023-01-26T11:23:14.161Z,96977.84
2023-01-26T11:24:26.582Z,96976.72
2023-01-26T11:25:30.798Z,96977.53
2023-01-26T11:26:51.174Z,96980.63
2023-01-26T11:28:08.362Z,96975.22
2023-01-26T11:29:31.704Z,96972.91
2023-01-26T11:30:42.809Z,96969.53
2023-01-26T11:31:50.786Z,96970.06
2023-01-26T11:33:18.763Z,96965.41
2023-01-26T11:34:39.299Z,96960.94
2023-01-26T11:35:56.175Z,96956.31
2023-01-26T11:36:58.193Z,96957.13
2023-01-26T11:38:07.037Z,96953.59
2023-01-26T11:39:24.960Z,96950.06
2023-01-26T11:40:30.369Z,96954.53
2023-01-26T11:41:38.265Z,96950.16
2023-01-26T11:42:40.041Z,96949.91
2023-01-26T11:43:44.885Z,96940.44
2023-01-26T11:45:03.440Z,96946.25
2023-01-26T11:46:17.717Z,96942.84
2023-01-26T11:47:22.493Z,96944.25
2023-01-26T11:48:24.301Z,96943.81
2023-01-26T11:49:35.088Z,96940.13
2023-01-26T11:50:39.932Z,96938.09
2023-01-26T11:51:43.456Z,96939.69
2023-01-26T11:52:49.923Z,96934.06
2023-01-26T11:54:00.873Z,96940.00
2023-01-26T11:55:02.586Z,96937.28
2023-01-26T11:56:07.460Z,96933.09
2023-01-26T11:57:32.592Z,96936.91
2023-01-26T11:58:41.640Z,96937.72
2023-01-26T11:59:48.475Z,96940.66
2023-01-26T12:00:52.352Z,96936.31
2023-01-26T12:02:00.745Z,96936.47
2023-01-26T12:03:04.446Z,96930.81
2023-01-26T12:04:07.091Z,96934.47
2023-01-26T12:05:24.378Z,96936.53
2023-01-26T12:06:32.112Z,96933.00
2023-01-26T12:07:57.539Z,96933.97
2023-01-26T12:09:02.322Z,96927.19
2023-01-26T12:10:06.371Z,96926.09
2023-01-26T12:11:24.072Z,96928.25
2023-01-26T12:12:40.249Z,96918.75
2023-01-26T12:13:44.945Z,96922.00
2023-01-26T12:14:49.827Z,96920.38
2023-01-26T12:15:55.240Z,96924.56
2023-01-26T12:17:16.822Z,96920.38
2023-01-26T12:18:32.304Z,96929.06
2023-01-26T12:19:53.112Z,96915.53
2023-01-26T12:21:00.356Z,96920.38
2023-01-26T12:22:25.254Z,96919.56
2023-01-26T12:23:35.521Z,96920.66
2023-01-26T12:25:08.400Z,96919.03
2023-01-26T12:26:07.990Z,96919.88
2023-01-26T12:27:18.113Z,96912.28
2023-01-26T12:28:22.485Z,96904.44
2023-01-26T12:29:44.107Z,96916.47
2023-01-26T12:30:49.056Z,96911.78
2023-01-26T12:32:08.507Z,96916.13
2023-01-26T12:33:11.001Z,96907.28
2023-01-26T12:34:13.699Z,96908.09
2023-01-26T12:35:21.994Z,96913.22
2023-01-26T12:36:42.741Z,96911.63
2023-01-26T12:37:51.442Z,96908.41
2023-01-26T12:39:09.169Z,96906.09
2023-01-26T12:40:16.746Z,96913.53
2023-01-26T12:41:21.562Z,96907.44
2023-01-26T12:42:49.730Z,96912.03
2023-01-26T12:43:51.386Z,96913.69